createdAt,value
2019-03-21T00:00:10.614Z,42.97
2019-03-21T00:05:53.645Z,43.80
2019-03-21T00:11:40.990Z,44.13
2019-03-21T00:17:21.164Z,44.83
2019-03-21T00:22:25.721Z,45.20
2019-03-21T00:28:06.188Z,44.77
2019-03-21T00:33:28.338Z,44.17
2019-03-21T00:39:08.414Z,45.77
2019-03-21T00:44:18.113Z,45.70
2019-03-21T00:49:55.377Z,45.80
2019-03-21T00:55:02.970Z,47.93
2019-03-21T01:00:44.301Z,47.90
2019-03-21T01:05:50.604Z,47.33
2019-03-21T01:11:30.538Z,48.97
2019-03-21T01:16:39.022Z,50.00
2019-03-21T01:22:19.559Z,48.77
2019-03-21T01:27:33.522Z,49.70
2019-03-21T01:32:39.797Z,50.90
2019-03-21T01:37:46.106Z,50.60
2019-03-21T01:43:26.661Z,49.20
2019-03-21T01:48:31.467Z,49.10
2019-03-21T01:53:35.825Z,49.37
2019-03-21T01:59:16.117Z,49.67
2019-03-21T02:04:20.809Z,47.73
2019-03-21T02:10:00.731Z,49.97
2019-03-21T02:15:06.653Z,46.23
2019-03-21T02:20:46.576Z,46.30
2019-03-21T02:25:51.031Z,46.90
2019-03-21T02:31:13.295Z,46.27
2019-03-21T02:36:22.824Z,48.77
2019-03-21T02:42:03.818Z,45.47
2019-03-21T02:47:08.574Z,47.70
2019-03-21T02:52:48.638Z,49.03
2019-03-21T02:57:54.097Z,46.20
2019-03-21T03:03:34.583Z,45.50
2019-03-21T03:08:39.248Z,42.77
2019-03-21T03:14:20.111Z,41.77
2019-03-21T03:19:24.783Z,40.73
2019-03-21T03:25:05.023Z,39.70
2019-03-21T03:30:15.217Z,37.50
2019-03-21T03:35:22.273Z,35.07
2019-03-21T03:40:33.388Z,35.60
2019-03-21T03:46:14.280Z,34.87
2019-03-21T03:51:18.740Z,35.87
2019-03-21T03:56:59.096Z,35.47
2019-03-21T04:02:03.567Z,34.87
2019-03-21T04:07:43.920Z,35.23
2019-03-21T04:12:51.263Z,37.47
2019-03-21T04:18:31.597Z,34.37
2019-03-21T04:23:36.181Z,37.40
2019-03-21T04:29:16.725Z,37.17
2019-03-21T04:34:41.335Z,38.27
2019-03-21T04:40:21.506Z,37.10
2019-03-21T04:45:26.087Z,37.90
2019-03-21T04:51:07.246Z,40.60
2019-03-21T04:56:14.475Z,40.83
2019-03-21T05:01:54.725Z,39.23
2019-03-21T05:06:59.259Z,37.20
2019-03-21T05:12:39.537Z,37.23
2019-03-21T05:17:48.948Z,35.20
2019-03-21T05:23:29.173Z,35.00
2019-03-21T05:28:33.669Z,32.50
2019-03-21T05:33:39.354Z,30.20
2019-03-21T05:38:43.940Z,31.80
2019-03-21T05:50:23.618Z,28.07
2019-03-21T05:55:28.512Z,27.90
2019-03-21T06:01:08.844Z,27.30
2019-03-21T06:06:16.960Z,27.27
2019-03-21T06:12:04.157Z,28.83
2019-03-21T06:17:08.561Z,30.70
2019-03-21T06:22:49.228Z,34.10
2019-03-21T06:28:01.607Z,35.80
2019-03-21T06:33:42.135Z,34.87
2019-03-21T06:38:46.797Z,35.00
2019-03-21T06:44:27.259Z,32.80
2019-03-21T06:49:31.730Z,31.70
2019-03-21T06:55:13.507Z,35.00
2019-03-21T07:00:17.746Z,35.43
2019-03-21T07:05:58.017Z,34.37
2019-03-21T07:11:02.547Z,32.93
2019-03-21T07:16:43.040Z,32.37
2019-03-21T07:21:47.484Z,33.80
2019-03-21T07:27:27.550Z,35.97
2019-03-21T07:32:33.772Z,36.20
2019-03-21T07:37:41.783Z,36.23
2019-03-21T07:42:46.509Z,38.10
2019-03-21T07:48:26.462Z,39.97
2019-03-21T07:53:30.711Z,41.60
2019-03-21T07:59:13.355Z,39.00
2019-03-21T08:04:20.704Z,40.30
2019-03-21T08:10:01.009Z,37.50
2019-03-21T08:15:11.385Z,39.97
2019-03-21T08:20:58.456Z,40.90
2019-03-21T08:25:58.708Z,38.80
2019-03-21T08:31:39.147Z,38.07
2019-03-21T08:36:45.274Z,38.30
2019-03-21T08:42:25.704Z,36.80
2019-03-21T08:47:47.956Z,33.30
2019-03-21T08:53:28.333Z,35.90
2019-03-21T08:58:37.180Z,37.20
2019-03-21T09:04:17.450Z,37.50
2019-03-21T09:09:21.776Z,35.17
2019-03-21T09:15:02.175Z,35.90
2019-03-21T09:20:19.609Z,35.97
2019-03-21T09:26:01.727Z,33.90
2019-03-21T09:31:06.080Z,33.90
2019-03-21T09:36:10.189Z,37.30
2019-03-21T09:41:16.207Z,38.53
2019-03-21T09:46:56.484Z,32.23
2019-03-21T09:52:00.888Z,29.27
2019-03-21T09:57:41.582Z,27.30
2019-03-21T10:02:45.766Z,26.17
2019-03-21T10:08:25.672Z,19.33
2019-03-21T10:13:32.374Z,21.87
2019-03-21T10:19:12.845Z,21.80
2019-03-21T10:24:19.870Z,21.77
2019-03-21T10:30:00.427Z,19.00
2019-03-21T10:35:08.052Z,19.90
2019-03-21T10:40:12.794Z,23.23
2019-03-21T10:45:54.085Z,23.70
2019-03-21T10:51:07.737Z,21.97
2019-03-21T10:56:49.652Z,21.80
2019-03-21T11:01:54.941Z,22.33
2019-03-21T11:07:37.236Z,21.20
2019-03-21T11:12:41.690Z,20.37
2019-03-21T11:18:22.469Z,21.37
2019-03-21T11:23:29.843Z,19.77
2019-03-21T11:29:10.150Z,19.97
2019-03-21T11:34:14.685Z,20.47
2019-03-21T11:39:20.620Z,20.50
2019-03-21T11:44:27.010Z,21.30
2019-03-21T11:50:08.748Z,21.10
2019-03-21T11:55:16.078Z,18.00
2019-03-21T12:00:56.531Z,18.33
2019-03-21T12:06:01.314Z,17.77
2019-03-21T12:11:48.515Z,18.40
2019-03-21T12:16:53.587Z,17.83
2019-03-21T12:22:33.950Z,18.90
2019-03-21T12:27:39.942Z,17.57
2019-03-21T12:33:20.302Z,19.23
2019-03-21T12:38:24.990Z,19.13
2019-03-21T12:44:04.916Z,16.10
2019-03-21T12:49:30.392Z,15.57
2019-03-21T12:55:11.850Z,14.20
2019-03-21T13:00:21.368Z,12.83
2019-03-21T13:06:01.580Z,13.13
2019-03-21T13:11:05.917Z,13.67
2019-03-21T13:16:46.601Z,13.30
2019-03-21T13:21:52.826Z,14.40
2019-03-21T13:27:33.154Z,15.00
2019-03-21T13:32:37.427Z,14.07
2019-03-21T13:37:42.497Z,17.43
2019-03-21T13:42:48.704Z,17.07
2019-03-21T13:48:28.690Z,17.60
2019-03-21T13:53:34.863Z,18.20
2019-03-21T13:59:15.348Z,17.40
2019-03-21T14:04:23.676Z,18.07
2019-03-21T14:10:04.668Z,17.23
2019-03-21T14:15:09.754Z,16.87
2019-03-21T14:20:49.998Z,18.00
2019-03-21T14:25:56.966Z,17.77
2019-03-21T14:31:37.168Z,18.10
2019-03-21T14:36:42.958Z,18.60
2019-03-21T14:42:23.339Z,19.00
2019-03-21T14:47:36.180Z,18.90
2019-03-21T14:53:12.948Z,16.07
2019-03-21T14:58:35.099Z,16.17
2019-03-21T15:04:15.275Z,15.73
2019-03-21T15:09:19.700Z,18.03
2019-03-21T15:14:59.681Z,17.13
2019-03-21T15:20:07.023Z,17.47
2019-03-21T15:25:47.304Z,17.63
2019-03-21T15:30:51.677Z,18.40
2019-03-21T15:36:14.156Z,16.10
2019-03-21T15:41:18.702Z,16.00
2019-03-21T15:46:58.976Z,15.17
2019-03-21T15:52:03.402Z,15.53
2019-03-21T15:57:43.790Z,14.53
2019-03-21T16:02:49.299Z,15.10
2019-03-21T16:08:29.430Z,16.07
2019-03-21T16:13:33.786Z,15.30
2019-03-21T16:19:14.458Z,16.70
2019-03-21T16:24:32.630Z,17.13
2019-03-21T16:30:39.847Z,15.97
2019-03-21T16:42:10.092Z,17.23
2019-03-21T17:00:39.388Z,15.80
2019-03-21T17:05:47.312Z,16.77
2019-03-21T17:11:28.021Z,15.83
2019-03-21T17:16:32.184Z,16.90
2019-03-21T17:22:12.433Z,15.00
2019-03-21T17:27:16.801Z,16.23
2019-03-21T17:32:56.518Z,15.77
2019-03-21T17:38:01.267Z,16.90
2019-03-21T17:43:41.437Z,18.23
2019-03-21T17:48:46.557Z,16.63
2019-03-21T17:54:26.663Z,18.57
2019-03-21T17:59:30.982Z,17.57
2019-03-21T18:05:12.038Z,16.77
2019-03-21T18:10:27.809Z,17.37
2019-03-21T18:16:08.074Z,17.00
2019-03-21T18:21:31.712Z,18.50
2019-03-21T18:27:13.608Z,18.80
2019-03-21T18:32:17.794Z,20.27
2019-03-21T18:37:59.007Z,19.40
2019-03-21T18:43:03.807Z,19.10
2019-03-21T18:48:44.197Z,18.63
2019-03-21T18:53:48.785Z,18.73
2019-03-21T18:59:29.464Z,20.20
2019-03-21T19:04:36.317Z,20.17
2019-03-21T19:10:16.631Z,20.30
2019-03-21T19:15:21.971Z,22.60
2019-03-21T19:21:01.841Z,22.97
2019-03-21T19:26:06.635Z,24.97
2019-03-21T19:31:47.261Z,26.57
2019-03-21T19:36:53.328Z,27.57
2019-03-21T19:42:01.009Z,23.10
2019-03-21T19:47:22.841Z,18.73
2019-03-21T19:52:54.700Z,19.00
2019-03-21T19:57:59.176Z,18.80
2019-03-21T20:03:39.467Z,22.33
2019-03-21T20:08:44.043Z,25.47
2019-03-21T20:14:25.659Z,22.60
2019-03-21T20:19:30.042Z,22.33
2019-03-21T20:24:36.896Z,20.70
2019-03-21T20:29:44.196Z,20.90
2019-03-21T20:35:24.269Z,20.07
2019-03-21T20:40:28.778Z,19.97
2019-03-21T20:45:35.495Z,19.13
2019-03-21T20:51:15.831Z,19.07
2019-03-21T20:56:24.755Z,20.37
2019-03-21T21:02:04.786Z,19.80
2019-03-21T21:07:11.800Z,18.87
2019-03-21T21:12:52.182Z,18.47
2019-03-21T21:17:56.582Z,16.00
2019-03-21T21:23:36.368Z,17.30
2019-03-21T21:29:01.085Z,18.43
2019-03-21T21:34:05.391Z,18.70
2019-03-21T21:39:09.666Z,20.40
2019-03-21T21:44:14.272Z,20.87
2019-03-21T21:49:18.533Z,20.70
2019-03-21T21:54:23.499Z,21.07
2019-03-21T22:00:03.645Z,20.47
2019-03-21T22:06:02.658Z,19.07
2019-03-21T22:11:07.030Z,20.10
2019-03-21T22:16:47.381Z,21.90
2019-03-21T22:21:54.001Z,25.13
2019-03-21T22:27:34.446Z,27.60
2019-03-21T22:32:40.298Z,24.20
2019-03-21T22:38:21.307Z,24.90
2019-03-21T22:43:25.716Z,24.60
2019-03-21T22:49:08.687Z,21.30
2019-03-21T22:54:13.255Z,20.17
2019-03-21T22:59:53.712Z,24.43
2019-03-21T23:04:58.432Z,19.50
2019-03-21T23:10:38.420Z,24.37
2019-03-21T23:15:45.673Z,25.97
2019-03-21T23:21:25.899Z,25.60
2019-03-21T23:26:38.210Z,24.57
2019-03-21T23:32:18.608Z,29.33
2019-03-21T23:37:26.963Z,27.60
2019-03-21T23:42:32.577Z,29.13
2019-03-21T23:47:36.964Z,28.67
2019-03-21T23:53:17.717Z,26.27
2019-03-21T23:58:22.144Z,27.27
